Time;durP1;ratioP1;P1;durP2;ratioP2;P2;SDS_P1;SDS_P2;PMS_P1;PMS_P2;Temp;Humidity;BMP_temperature;BMP_pressure;BME280_temperature;BME280_humidity;BME280_pressure;Samples;Min_cycle;Max_cycle;Signal;HPM_P1;HPM_P2
2022/09/05 00:00:13;;;;;;;5.28;4.78;;;14.90;99.90;;;;;;5220963;28;20036;-73
2022/09/05 00:02:54;;;;;;;5.25;4.75;;;14.90;99.90;;;;;;5220074;28;20346;-73
2022/09/05 00:06:04;;;;;;;6.18;4.85;;;14.80;99.90;;;;;;5229371;28;20605;-72
2022/09/05 00:08:53;;;;;;;5.82;5.22;;;14.80;99.90;;;;;;5224317;28;20043;-71
2022/09/05 00:11:48;;;;;;;5.53;5.03;;;14.80;99.90;;;;;;5205934;28;20036;-71
2022/09/05 00:15:08;;;;;;;5.70;5.20;;;14.70;99.90;;;;;;5207210;28;20039;-71
2022/09/05 00:18:16;;;;;;;6.07;4.60;;;14.70;99.90;;;;;;5237206;28;20055;-72
2022/09/05 00:21:17;;;;;;;6.40;5.80;;;14.60;99.90;;;;;;5216748;28;20032;-71
2022/09/05 00:24:09;;;;;;;7.18;5.90;;;14.60;99.90;;;;;;5184134;28;20040;-72
2022/09/05 00:27:18;;;;;;;7.68;6.18;;;14.60;99.90;;;;;;5220091;28;20028;-71
2022/09/05 00:30:03;;;;;;;6.95;5.68;;;14.50;99.90;;;;;;5215295;28;20032;-71
2022/09/05 00:33:02;;;;;;;6.65;5.75;;;14.50;99.90;;;;;;5216978;28;20033;-72
2022/09/05 00:35:55;;;;;;;6.85;5.38;;;14.50;99.90;;;;;;5237696;28;20046;-71
2022/09/05 00:38:30;;;;;;;6.28;5.68;;;14.50;99.90;;;;;;5220960;28;20044;-71
2022/09/05 00:41:09;;;;;;;7.07;5.93;;;14.40;99.90;;;;;;5223193;28;20245;-72
2022/09/05 00:43:48;;;;;;;7.00;6.05;;;14.50;99.90;;;;;;5223729;28;20037;-72
2022/09/05 00:46:36;;;;;;;7.40;6.25;;;14.50;99.90;;;;;;5210652;28;20025;-71
2022/09/05 00:49:39;;;;;;;6.50;5.75;;;14.50;99.90;;;;;;5207738;28;20037;-71
2022/09/05 00:52:42;;;;;;;7.28;6.07;;;14.50;99.90;;;;;;5216307;28;20025;-71
2022/09/05 00:55:45;;;;;;;7.43;5.13;;;14.50;99.90;;;;;;5199200;28;20037;-71
2022/09/05 00:58:59;;;;;;;6.90;5.75;;;14.40;99.90;;;;;;5200039;28;20471;-72
2022/09/05 01:02:13;;;;;;;6.90;6.13;;;14.40;99.90;;;;;;5204273;28;20024;-71
2022/09/05 01:05:01;;;;;;;6.57;5.85;;;14.40;99.90;;;;;;5186558;28;20045;-71
2022/09/05 01:08:30;;;;;;;8.82;6.07;;;14.40;99.90;;;;;;5236181;28;20594;-72
2022/09/05 01:11:38;;;;;;;7.70;6.50;;;14.40;99.90;;;;;;5214331;28;20044;-71
2022/09/05 01:14:52;;;;;;;8.38;6.60;;;14.50;99.90;;;;;;5237575;28;20467;-71
2022/09/05 01:17:49;;;;;;;7.55;6.70;;;14.40;99.90;;;;;;5233165;28;20035;-71
2022/09/05 01:20:45;;;;;;;7.78;6.75;;;14.40;99.90;;;;;;5214227;28;20110;-70
2022/09/05 01:23:39;;;;;;;8.80;7.35;;;14.40;99.90;;;;;;5220025;28;20052;-72
2022/09/05 01:26:32;;;;;;;10.88;7.55;;;14.30;99.90;;;;;;5237543;28;20329;-71
2022/09/05 01:29:19;;;;;;;7.95;7.05;;;14.30;99.90;;;;;;5235429;28;20355;-71
2022/09/05 01:32:21;;;;;;;9.38;7.72;;;14.20;99.90;;;;;;5198031;28;20041;-71
2022/09/05 01:35:36;;;;;;;8.40;7.47;;;14.20;99.90;;;;;;5213172;28;20020;-71
2022/09/05 01:38:39;;;;;;;9.30;6.85;;;14.20;99.90;;;;;;5239965;28;20045;-71
2022/09/05 01:41:42;;;;;;;9.43;7.30;;;14.10;99.90;;;;;;5241715;28;20045;-71
2022/09/05 01:44:37;;;;;;;9.63;7.80;;;14.20;99.90;;;;;;5220120;28;20028;-71
2022/09/05 01:47:28;;;;;;;9.75;7.82;;;14.30;99.90;;;;;;5239789;28;20038;-72
2022/09/05 01:50:31;;;;;;;8.95;7.97;;;14.30;99.90;;;;;;5223402;28;20048;-72
2022/09/05 01:53:25;;;;;;;9.68;8.05;;;14.20;99.90;;;;;;5239084;28;20075;-72
2022/09/05 01:56:15;;;;;;;10.98;7.55;;;14.20;99.90;;;;;;5218101;28;20396;-72
2022/09/05 01:59:10;;;;;;;10.93;8.38;;;14.20;99.90;;;;;;5243242;28;20043;-71
2022/09/05 02:02:28;;;;;;;9.77;8.68;;;14.20;99.90;;;;;;5221800;28;20074;-71
2022/09/05 02:05:34;;;;;;;11.38;8.75;;;14.10;99.90;;;;;;5208253;28;20057;-70
2022/09/05 02:08:15;;;;;;;10.63;8.45;;;14.10;99.90;;;;;;5219248;28;20040;-70
2022/09/05 02:11:07;;;;;;;11.13;8.93;;;14.10;99.90;;;;;;5235874;28;20036;-70
2022/09/05 02:14:01;;;;;;;10.93;9.10;;;14.20;99.90;;;;;;5221220;28;20044;-72
2022/09/05 02:16:36;;;;;;;10.15;9.05;;;14.20;99.90;;;;;;5215227;28;20040;-71
2022/09/05 02:19:11;;;;;;;12.73;9.93;;;14.20;99.90;;;;;;5201273;28;20045;-71
2022/09/05 02:22:02;;;;;;;12.27;9.60;;;14.20;99.90;;;;;;5201527;28;20059;-71
2022/09/05 02:24:43;;;;;;;11.55;9.88;;;14.20;99.90;;;;;;5217419;28;20043;-71
2022/09/05 02:27:48;;;;;;;12.40;9.55;;;14.10;99.90;;;;;;5238773;28;20036;-71
2022/09/05 02:30:26;;;;;;;12.27;9.98;;;14.10;99.90;;;;;;5202300;28;20031;-72
2022/09/05 02:33:30;;;;;;;12.00;9.70;;;14.10;99.90;;;;;;5201358;28;20029;-71
2022/09/05 02:36:32;;;;;;;12.07;9.82;;;14.10;99.90;;;;;;5226639;28;20021;-72
2022/09/05 02:39:39;;;;;;;10.73;8.93;;;14.10;99.90;;;;;;5217112;28;20383;-71
2022/09/05 02:42:55;;;;;;;12.45;9.88;;;13.90;99.90;;;;;;5219635;28;20125;-71
2022/09/05 02:45:47;;;;;;;12.65;10.27;;;14.00;99.90;;;;;;5190034;28;20059;-72
2022/09/05 02:49:12;;;;;;;13.60;10.60;;;14.00;99.90;;;;;;5239207;28;20032;-72
2022/09/05 02:52:07;;;;;;;12.00;9.02;;;14.00;99.90;;;;;;5171720;28;20050;-70
2022/09/05 02:54:46;;;;;;;;;;;13.90;99.90;;;;;;5142405;28;20516;-71
2022/09/05 02:57:45;;;;;;;12.02;8.30;;;13.90;99.90;;;;;;5143817;28;19910;-71
2022/09/05 03:00:28;;;;;;;16.23;10.68;;;13.80;99.90;;;;;;5157902;28;20460;-72
2022/09/05 03:03:39;;;;;;;13.48;10.75;;;13.80;99.90;;;;;;5159440;28;20052;-71
2022/09/05 03:06:32;;;;;;;17.75;11.05;;;13.80;99.90;;;;;;5149296;28;20052;-71
2022/09/05 03:09:12;;;;;;;15.85;10.68;;;13.80;99.90;;;;;;5175258;28;20282;-71
2022/09/05 03:11:49;;;;;;;13.60;9.98;;;13.70;99.90;;;;;;5163179;28;20030;-72
2022/09/05 03:15:16;;;;;;;13.55;10.60;;;13.60;99.90;;;;;;5159363;28;20047;-72
2022/09/05 03:18:47;;;;;;;14.02;11.15;;;13.60;99.90;;;;;;5114661;29;20046;-71
2022/09/05 03:21:46;;;;;;;15.23;11.15;;;13.60;99.90;;;;;;5115016;29;20586;-70
2022/09/05 03:24:55;;;;;;;15.10;11.27;;;13.60;99.90;;;;;;5115571;29;20440;-70
2022/09/05 03:28:06;;;;;;;16.17;10.80;;;13.70;99.90;;;;;;5118442;28;20039;-71
2022/09/05 03:31:05;;;;;;;19.05;12.48;;;13.70;99.90;;;;;;5109765;28;20443;-71
2022/09/05 03:33:40;;;;;;;16.00;12.48;;;13.80;99.90;;;;;;5119374;28;20051;-71
2022/09/05 03:36:26;;;;;;;19.05;11.38;;;13.80;99.90;;;;;;5135154;28;20038;-70
2022/09/05 03:39:38;;;;;;;15.45;10.88;;;13.70;99.90;;;;;;5120197;28;20037;-71
2022/09/05 03:42:21;;;;;;;14.68;11.93;;;13.70;99.90;;;;;;5137233;28;20402;-71
2022/09/05 03:45:21;;;;;;;15.00;10.73;;;13.60;99.90;;;;;;5134306;28;20114;-71
2022/09/05 03:48:04;;;;;;;14.50;10.15;;;13.50;99.90;;;;;;5134455;28;20174;-70
2022/09/05 03:50:55;;;;;;;13.20;10.70;;;13.50;99.90;;;;;;5134573;28;20091;-71
2022/09/05 03:53:54;;;;;;;15.80;12.10;;;13.40;99.90;;;;;;5129910;28;20554;-71
2022/09/05 03:56:46;;;;;;;15.02;11.80;;;13.40;99.90;;;;;;5233477;28;20051;-70
2022/09/05 04:00:07;;;;;;;21.60;14.35;;;13.40;99.90;;;;;;5235158;28;20361;-71
2022/09/05 04:03:00;;;;;;;20.65;13.70;;;13.40;99.90;;;;;;5215551;28;20475;-71
2022/09/05 04:05:42;;;;;;;20.00;14.48;;;13.40;99.90;;;;;;5228957;28;20376;-72
2022/09/05 04:09:06;;;;;;;18.33;12.95;;;13.40;99.90;;;;;;5223135;28;20037;-72
2022/09/05 04:11:46;;;;;;;16.88;12.05;;;13.30;99.90;;;;;;5188465;28;20043;-72
2022/09/05 04:14:49;;;;;;;16.17;11.77;;;13.20;99.90;;;;;;5177862;28;20499;-72
2022/09/05 04:17:36;;;;;;;15.35;10.73;;;13.20;99.90;;;;;;5172144;28;20465;-70
2022/09/05 04:20:25;;;;;;;17.42;12.13;;;13.30;99.90;;;;;;5158155;28;20046;-71
2022/09/05 04:23:17;;;;;;;15.63;11.30;;;13.30;99.90;;;;;;5158192;28;20032;-71
2022/09/05 04:26:13;;;;;;;16.70;12.55;;;13.40;99.90;;;;;;5173814;28;20189;-71
2022/09/05 04:29:16;;;;;;;18.25;12.30;;;13.40;99.90;;;;;;5173670;28;20037;-71
2022/09/05 04:32:13;;;;;;;18.50;11.07;;;13.50;99.90;;;;;;5172386;28;20037;-70
2022/09/05 04:35:03;;;;;;;17.30;13.15;;;13.50;99.90;;;;;;5173101;28;20052;-71
2022/09/05 04:37:48;;;;;;;19.38;12.75;;;13.60;99.90;;;;;;5171299;28;20421;-71
2022/09/05 04:40:43;;;;;;;15.52;11.05;;;13.60;99.90;;;;;;5161632;28;20056;-71
2022/09/05 04:43:44;;;;;;;17.23;12.07;;;13.60;99.90;;;;;;5154847;28;20414;-71
2022/09/05 04:46:44;;;;;;;18.92;13.23;;;13.60;99.90;;;;;;5120570;28;20046;-71
2022/09/05 04:49:24;;;;;;;18.40;12.90;;;13.50;99.90;;;;;;5145298;28;20080;-71
2022/09/05 04:52:34;;;;;;;19.23;14.02;;;13.50;99.90;;;;;;5157354;28;20508;-70
2022/09/05 04:55:13;;;;;;;20.52;13.77;;;13.60;99.90;;;;;;5136809;28;20050;-71
2022/09/05 04:58:05;;;;;;;19.17;13.75;;;13.70;99.90;;;;;;5118833;28;20053;-72
2022/09/05 05:00:54;;;;;;;16.27;12.25;;;13.80;99.90;;;;;;5117682;28;20054;-71
2022/09/05 05:03:33;;;;;;;20.13;14.65;;;13.90;99.90;;;;;;5161738;28;20056;-71
2022/09/05 05:06:27;;;;;;;22.23;14.43;;;14.00;99.90;;;;;;5159733;28;20076;-71
2022/09/05 05:09:00;;;;;;;19.77;13.90;;;14.20;99.90;;;;;;5148880;28;20047;-72
2022/09/05 05:11:49;;;;;;;16.50;13.02;;;14.30;99.90;;;;;;5160560;28;20347;-73
2022/09/05 05:14:47;;;;;;;19.77;12.60;;;14.40;99.90;;;;;;5135828;28;20034;-71
2022/09/05 05:17:51;;;;;;;15.65;12.10;;;14.60;99.90;;;;;;5110263;28;20042;-72
2022/09/05 05:20:40;;;;;;;18.30;13.43;;;14.70;99.90;;;;;;5149336;28;20042;-71
2022/09/05 05:23:35;;;;;;;14.20;11.43;;;14.70;99.90;;;;;;5181954;28;20055;-71
2022/09/05 05:26:23;;;;;;;13.93;10.97;;;14.80;99.90;;;;;;5204558;28;20392;-71
2022/09/05 05:29:03;;;;;;;14.90;11.15;;;15.00;99.90;;;;;;5239378;28;20276;-73
2022/09/05 05:31:49;;;;;;;16.33;12.48;;;15.10;99.90;;;;;;5218794;28;20044;-72
2022/09/05 05:34:34;;;;;;;15.20;12.32;;;15.30;99.90;;;;;;5230704;28;20483;-71
2022/09/05 05:37:31;;;;;;;18.42;13.73;;;15.40;99.90;;;;;;5221906;28;20070;-72
2022/09/05 05:40:15;;;;;;;16.55;13.15;;;15.60;99.90;;;;;;5214138;28;20032;-71
2022/09/05 05:42:53;;;;;;;16.55;12.85;;;15.80;99.90;;;;;;5242391;28;20047;-72
2022/09/05 05:45:31;;;;;;;17.40;13.15;;;15.80;99.90;;;;;;5224078;28;20080;-72
2022/09/05 05:48:32;;;;;;;14.20;12.15;;;16.10;99.90;;;;;;5229649;28;20416;-72
2022/09/05 05:51:29;;;;;;;15.18;12.30;;;16.40;99.90;;;;;;5243519;28;20479;-71
2022/09/05 05:54:31;;;;;;;15.57;10.88;;;17.00;99.90;;;;;;5216003;28;20631;-71
2022/09/05 05:57:18;;;;;;;11.95;10.18;;;17.20;99.90;;;;;;5236157;28;20042;-74
2022/09/05 06:00:12;;;;;;;13.77;10.65;;;17.20;99.90;;;;;;5236386;28;20048;-72
2022/09/05 06:03:14;;;;;;;13.18;10.77;;;17.50;99.90;;;;;;5215786;28;20024;-72
2022/09/05 06:06:11;;;;;;;11.13;9.93;;;17.60;99.90;;;;;;5225681;28;20392;-73
2022/09/05 06:09:32;;;;;;;13.82;11.02;;;17.90;99.90;;;;;;5214738;28;20048;-73
2022/09/05 06:12:49;;;;;;;12.95;9.52;;;18.00;99.90;;;;;;5150609;28;20464;-72
2022/09/05 06:16:00;;;;;;;9.82;8.82;;;18.30;99.90;;;;;;5130388;28;20081;-73
2022/09/05 06:18:40;;;;;;;11.77;10.27;;;18.80;99.90;;;;;;5146121;28;20030;-73
2022/09/05 06:21:22;;;;;;;10.88;9.00;;;19.10;99.90;;;;;;5150726;28;20515;-72
2022/09/05 06:24:33;;;;;;;11.70;9.25;;;19.50;99.90;;;;;;5156424;28;20038;-73
2022/09/05 06:27:22;;;;;;;13.73;9.82;;;19.80;99.90;;;;;;5145435;28;20056;-72
2022/09/05 06:30:19;;;;;;;10.77;9.25;;;20.00;99.90;;;;;;5155351;28;20038;-72
2022/09/05 06:33:13;;;;;;;11.40;9.43;;;20.00;99.90;;;;;;5155125;28;20049;-72
2022/09/05 06:36:15;;;;;;;11.35;8.75;;;20.10;99.90;;;;;;5156511;28;20046;-72
2022/09/05 06:38:56;;;;;;;10.30;8.98;;;20.40;99.90;;;;;;5139274;28;20045;-72
2022/09/05 06:42:17;;;;;;;11.80;8.27;;;20.60;99.90;;;;;;5155152;28;20050;-72
2022/09/05 06:45:36;;;;;;;9.48;7.93;;;20.90;99.90;;;;;;5151776;28;20220;-74
2022/09/05 06:48:25;;;;;;;11.38;7.97;;;21.00;99.90;;;;;;5125624;28;20611;-71
2022/09/05 06:51:36;;;;;;;8.60;7.13;;;21.40;99.90;;;;;;5172186;28;20050;-72
2022/09/05 06:54:44;;;;;;;7.80;7.03;;;21.60;99.90;;;;;;5237845;28;20314;-72
2022/09/05 06:57:51;;;;;;;7.95;6.65;;;21.90;99.90;;;;;;5221471;28;20037;-74
2022/09/05 07:01:01;;;;;;;7.53;6.05;;;22.10;99.90;;;;;;5215315;28;20054;-73
2022/09/05 07:04:11;;;;;;;6.88;6.22;;;22.30;99.90;;;;;;5092310;29;20047;-73
2022/09/05 07:07:09;;;;;;;8.48;6.10;;;22.10;99.90;;;;;;5076659;28;20055;-73
2022/09/05 07:10:05;;;;;;;7.03;6.32;;;22.20;99.90;;;;;;5125126;28;20039;-72
2022/09/05 07:12:55;;;;;;;6.60;5.95;;;22.50;99.90;;;;;;5097386;29;20053;-72
2022/09/05 07:15:34;;;;;;;8.05;6.18;;;22.60;99.90;;;;;;5099057;29;20049;-72
2022/09/05 07:18:44;;;;;;;6.22;5.30;;;22.50;99.90;;;;;;5113908;29;20047;-72
2022/09/05 07:21:36;;;;;;;7.78;6.70;;;22.20;99.90;;;;;;5095224;29;20048;-72
2022/09/05 07:24:24;;;;;;;7.30;5.63;;;22.30;99.90;;;;;;5094098;29;20043;-71
2022/09/05 07:26:58;;;;;;;7.18;5.35;;;22.40;99.90;;;;;;5114524;29;20497;-72
2022/09/05 07:29:42;;;;;;;7.93;6.22;;;22.60;99.90;;;;;;5117195;28;20035;-73
2022/09/05 07:32:19;;;;;;;6.78;6.18;;;22.40;99.90;;;;;;5087790;29;20043;-71
2022/09/05 07:34:51;;;;;;;5.72;5.07;;;22.30;99.90;;;;;;5096027;29;20589;-71
2022/09/05 07:37:34;;;;;;;5.85;4.50;;;22.60;99.90;;;;;;5148302;28;20046;-72
2022/09/05 07:40:15;;;;;;;6.65;5.60;;;22.80;99.90;;;;;;5221633;28;20038;-73
2022/09/05 07:43:15;;;;;;;5.20;4.60;;;23.20;99.90;;;;;;5204614;28;20048;-72
2022/09/05 07:46:10;;;;;;;5.55;4.95;;;23.40;99.90;;;;;;5203019;28;20044;-72
2022/09/05 07:48:59;;;;;;;6.07;5.40;;;23.50;99.90;;;;;;5239848;28;20029;-72
2022/09/05 07:51:35;;;;;;;5.30;4.80;;;23.70;99.90;;;;;;5242721;28;20033;-72
2022/09/05 07:54:22;;;;;;;6.57;5.18;;;24.10;99.90;;;;;;5224455;28;20328;-72
2022/09/05 07:57:08;;;;;;;6.28;4.78;;;24.00;99.90;;;;;;5239487;28;20028;-73
2022/09/05 07:59:52;;;;;;;5.68;5.07;;;24.40;99.90;;;;;;5219948;28;20028;-72
2022/09/05 08:02:29;;;;;;;6.10;5.45;;;24.30;99.90;;;;;;5206932;28;20043;-72
2022/09/05 08:05:06;;;;;;;7.97;4.85;;;24.50;99.90;;;;;;5203105;28;20059;-72
2022/09/05 08:07:40;;;;;;;9.00;6.07;;;24.10;99.90;;;;;;5211209;28;20036;-72
2022/09/05 08:10:22;;;;;;;6.32;4.78;;;23.90;99.90;;;;;;5234479;28;20092;-71
2022/09/05 08:13:10;;;;;;;5.00;4.47;;;24.00;99.90;;;;;;5236039;28;20032;-73
2022/09/05 08:15:48;;;;;;;5.13;4.63;;;24.10;99.90;;;;;;5215399;28;20044;-73
2022/09/05 08:18:57;;;;;;;6.57;4.15;;;24.40;99.90;;;;;;5185664;28;20391;-73
2022/09/05 08:21:47;;;;;;;6.38;5.15;;;24.80;99.90;;;;;;5168940;28;20054;-73
2022/09/05 08:24:45;;;;;;;5.32;4.82;;;24.30;99.90;;;;;;5221572;28;20265;-73
2022/09/05 08:27:26;;;;;;;5.40;4.03;;;24.80;99.90;;;;;;5187898;28;20471;-71
2022/09/05 08:30:09;;;;;;;5.85;4.60;;;25.50;99.90;;;;;;5234248;28;20052;-72
2022/09/05 08:32:53;;;;;;;5.40;4.38;;;26.00;99.90;;;;;;5210668;28;20055;-72
2022/09/05 08:35:34;;;;;;;;;;;26.50;99.90;;;;;;5198189;28;20037;-72
2022/09/05 08:38:09;;;;;;;5.80;4.20;;;27.00;99.90;;;;;;5211201;28;19919;-72
2022/09/05 08:41:17;;;;;;;6.70;4.47;;;26.90;99.90;;;;;;5215024;28;20044;-72
2022/09/05 08:44:25;;;;;;;5.18;3.97;;;26.60;99.90;;;;;;5214874;28;20052;-73
2022/09/05 08:47:18;;;;;;;5.57;4.47;;;26.50;99.90;;;;;;5216751;28;20037;-72
2022/09/05 08:50:48;;;;;;;4.28;3.83;;;26.20;99.90;;;;;;5216434;28;20612;-73
2022/09/05 08:53:45;;;;;;;4.63;3.92;;;26.60;99.90;;;;;;5230001;28;20040;-73
2022/09/05 08:56:30;;;;;;;4.90;3.40;;;26.90;99.90;;;;;;5236028;28;20044;-73
2022/09/05 08:59:27;;;;;;;5.00;4.10;;;27.50;99.90;;;;;;5220179;28;20051;-72
2022/09/05 09:02:48;;;;;;;5.97;3.63;;;27.60;99.90;;;;;;5211710;28;20036;-72
2022/09/05 09:05:42;;;;;;;4.43;4.03;;;27.40;99.90;;;;;;5232970;28;20060;-72
2022/09/05 09:08:21;;;;;;;3.97;3.40;;;27.40;99.90;;;;;;5223267;28;20124;-73
2022/09/05 09:11:04;;;;;;;3.58;3.17;;;27.80;99.90;;;;;;5235984;28;20040;-72
2022/09/05 09:13:51;;;;;;;4.13;3.57;;;27.80;99.90;;;;;;5219615;28;20032;-73
2022/09/05 09:17:00;;;;;;;3.65;3.35;;;27.70;99.90;;;;;;5219453;28;20046;-72
2022/09/05 09:19:50;;;;;;;10.23;3.88;;;27.90;99.90;;;;;;5202851;28;20041;-74
2022/09/05 09:22:52;;;;;;;6.07;3.88;;;27.60;99.90;;;;;;5217552;28;20244;-72
2022/09/05 09:25:40;;;;;;;4.80;4.22;;;28.10;99.90;;;;;;5227999;28;20044;-72
2022/09/05 09:28:55;;;;;;;4.60;3.85;;;28.10;99.90;;;;;;5221288;28;20054;-72
2022/09/05 09:31:58;;;;;;;3.80;3.50;;;27.50;99.90;;;;;;5199077;28;20036;-73
2022/09/05 09:34:40;;;;;;;3.90;3.53;;;28.30;99.90;;;;;;5226868;28;20035;-72
2022/09/05 09:38:09;;;;;;;3.90;3.28;;;29.70;99.90;;;;;;5229451;28;20032;-72
2022/09/05 09:41:10;;;;;;;3.67;3.38;;;29.30;99.90;;;;;;5221127;28;20032;-72
2022/09/05 09:44:38;;;;;;;4.28;3.88;;;29.40;99.90;;;;;;5230428;28;20037;-72
2022/09/05 09:47:16;;;;;;;4.00;3.40;;;29.50;99.90;;;;;;5226960;28;20028;-73
2022/09/05 09:50:24;;;;;;;3.42;3.13;;;29.70;99.90;;;;;;5219331;28;20529;-72
2022/09/05 09:53:32;;;;;;;3.45;3.13;;;29.50;99.90;;;;;;5231933;28;20028;-72
2022/09/05 09:56:29;;;;;;;3.90;3.17;;;29.30;99.90;;;;;;5222623;28;20048;-72
2022/09/05 09:59:41;;;;;;;2.65;2.45;;;29.60;99.90;;;;;;5242531;28;20040;-71
2022/09/05 10:02:39;;;;;;;3.78;2.80;;;29.80;99.90;;;;;;5238215;28;20031;-72
2022/09/05 10:05:29;;;;;;;3.95;2.85;;;30.20;99.90;;;;;;5215100;28;20079;-72
2022/09/05 10:08:31;;;;;;;2.80;2.58;;;30.00;99.90;;;;;;5205162;28;20233;-72
2022/09/05 10:11:37;;;;;;;2.75;2.53;;;30.80;99.90;;;;;;5236876;28;20032;-72
2022/09/05 10:14:53;;;;;;;3.10;2.80;;;31.30;99.90;;;;;;5220748;28;20040;-73
2022/09/05 10:17:56;;;;;;;4.43;3.63;;;30.10;99.90;;;;;;5240362;28;20043;-73
2022/09/05 10:20:47;;;;;;;3.38;3.00;;;29.20;99.90;;;;;;5220546;28;20040;-72
2022/09/05 10:24:03;;;;;;;3.38;2.67;;;28.80;99.90;;;;;;5231865;28;20044;-73
2022/09/05 10:26:58;;;;;;;2.60;2.40;;;30.10;99.90;;;;;;5251805;28;20091;-72
2022/09/05 10:29:56;;;;;;;3.15;2.92;;;29.70;99.90;;;;;;5236934;28;20031;-71
2022/09/05 10:33:07;;;;;;;3.13;2.67;;;31.10;99.90;;;;;;5205992;28;20037;-71
2022/09/05 10:35:51;;;;;;;3.40;3.00;;;32.00;99.90;;;;;;5227629;28;20041;-71
2022/09/05 10:38:32;;;;;;;;;;;33.50;99.90;;;;;;5218184;28;20045;-72
2022/09/05 10:41:14;;;;;;;3.50;2.83;;;33.00;99.90;;;;;;5223771;28;19915;-72
2022/09/05 10:44:01;;;;;;;2.60;2.40;;;33.50;99.90;;;;;;5225109;28;20047;-71
2022/09/05 10:46:35;;;;;;;4.97;3.10;;;34.00;99.90;;;;;;5223728;28;20539;-72
2022/09/05 10:49:14;;;;;;;3.83;3.05;;;33.60;99.90;;;;;;5240940;28;20405;-72
2022/09/05 10:51:59;;;;;;;4.15;3.47;;;33.00;99.90;;;;;;5248249;28;20044;-72
2022/09/05 10:55:07;;;;;;;2.95;2.65;;;33.00;99.90;;;;;;5226132;28;20064;-72
2022/09/05 10:58:10;;;;;;;2.92;2.63;;;33.80;99.90;;;;;;5224531;28;20044;-72
2022/09/05 11:01:26;;;;;;;3.75;2.53;;;32.40;99.90;;;;;;5228269;28;20036;-72
2022/09/05 11:04:43;;;;;;;2.95;2.67;;;32.10;99.90;;;;;;5240863;28;20041;-72
2022/09/05 11:07:57;;;;;;;2.92;2.60;;;32.70;99.90;;;;;;5172790;28;20083;-72
2022/09/05 11:11:05;;;;;;;3.03;2.73;;;34.40;99.90;;;;;;5214923;28;20499;-73
2022/09/05 11:13:49;;;;;;;3.30;2.70;;;34.30;99.90;;;;;;5196499;28;20055;-72
2022/09/05 11:16:42;;;;;;;3.28;2.97;;;34.10;99.90;;;;;;5197570;28;20033;-71
2022/09/05 11:19:19;;;;;;;3.75;2.75;;;33.30;99.90;;;;;;5200258;28;20463;-72
2022/09/05 11:21:58;;;;;;;3.17;2.72;;;32.50;99.90;;;;;;5218777;28;20717;-72
2022/09/05 11:25:00;;;;;;;2.60;2.40;;;33.00;99.90;;;;;;5216207;28;20040;-71
2022/09/05 11:27:44;;;;;;;3.25;2.72;;;33.50;99.90;;;;;;5215990;28;20033;-71
2022/09/05 11:30:21;;;;;;;;;;;33.10;99.90;;;;;;5199819;28;20037;-73
2022/09/05 11:33:31;;;;;;;2.70;2.50;;;31.70;99.90;;;;;;5197245;28;19931;-72
2022/09/05 11:36:56;;;;;;;2.88;2.58;;;31.70;99.90;;;;;;5213627;28;20059;-71
2022/09/05 11:39:33;;;;;;;2.53;2.33;;;31.30;99.90;;;;;;5196924;28;20041;-74
2022/09/05 11:42:23;;;;;;;3.05;2.28;;;30.70;99.90;;;;;;5216320;28;20036;-74
2022/09/05 11:45:40;;;;;;;3.45;2.42;;;33.30;99.90;;;;;;5215113;28;20230;-72
2022/09/05 11:48:34;;;;;;;2.25;2.13;;;35.40;99.90;;;;;;5204729;28;20039;-71
2022/09/05 11:51:42;;;;;;;2.85;2.15;;;35.60;99.90;;;;;;5199348;28;20147;-72
2022/09/05 11:55:04;;;;;;;2.35;2.15;;;35.00;99.90;;;;;;5185215;28;20044;-71
2022/09/05 11:58:31;;;;;;;2.22;2.03;;;33.10;99.90;;;;;;5181077;28;20249;-72
2022/09/05 12:01:28;;;;;;;2.10;2.00;;;35.60;99.90;;;;;;5216225;28;20039;-72
2022/09/05 12:04:35;;;;;;;3.45;1.85;;;35.00;99.90;;;;;;5213964;28;20036;-71
2022/09/05 12:07:42;;;;;;;1.85;1.75;;;34.80;99.90;;;;;;5188211;28;20064;-71
2022/09/05 12:10:38;;;;;;;1.92;1.80;;;35.20;99.90;;;;;;5175496;28;20041;-72
2022/09/05 12:13:46;;;;;;;2.00;1.80;;;33.70;99.90;;;;;;5158886;28;20049;-72
2022/09/05 12:16:55;;;;;;;2.20;1.75;;;32.70;99.90;;;;;;5157912;28;20092;-73
2022/09/05 12:19:48;;;;;;;2.03;1.90;;;33.30;99.90;;;;;;5159545;28;20049;-72
2022/09/05 12:22:29;;;;;;;2.13;1.92;;;34.10;99.90;;;;;;5157850;28;20045;-72
2022/09/05 12:25:01;;;;;;;1.75;1.65;;;34.60;99.90;;;;;;5156063;28;20037;-73
2022/09/05 12:27:36;;;;;;;1.77;1.67;;;33.40;99.90;;;;;;5173138;28;20058;-73
2022/09/05 12:30:15;;;;;;;1.90;1.75;;;32.00;99.90;;;;;;5171347;28;20343;-73
2022/09/05 12:32:52;;;;;;;1.95;1.80;;;31.40;99.90;;;;;;5172418;28;20243;-73
2022/09/05 12:35:37;;;;;;;2.28;1.73;;;31.20;99.90;;;;;;5155391;28;20060;-73
2022/09/05 12:38:35;;;;;;;2.42;2.00;;;30.80;99.90;;;;;;5168239;28;20376;-74
2022/09/05 12:41:23;;;;;;;3.38;2.00;;;30.80;99.90;;;;;;5156850;28;20359;-73
2022/09/05 12:44:00;;;;;;;3.63;1.80;;;30.30;99.90;;;;;;5176199;28;20261;-72
2022/09/05 12:46:48;;;;;;;1.92;1.60;;;29.40;99.90;;;;;;5168046;28;20055;-72
2022/09/05 12:49:30;;;;;;;2.53;2.00;;;30.30;99.90;;;;;;5204776;28;20042;-73
2022/09/05 12:52:18;;;;;;;1.75;1.65;;;31.80;99.90;;;;;;5221605;28;20495;-72
2022/09/05 12:55:02;;;;;;;1.95;1.85;;;32.70;99.90;;;;;;5200192;28;20028;-74
2022/09/05 12:57:43;;;;;;;3.08;1.80;;;32.50;99.90;;;;;;5199900;28;20047;-72
2022/09/05 13:00:24;;;;;;;2.70;1.80;;;32.50;99.90;;;;;;5198653;28;20330;-71
2022/09/05 13:03:02;;;;;;;3.47;1.50;;;32.30;99.90;;;;;;5198113;28;20056;-72
2022/09/05 13:06:18;;;;;;;1.77;1.67;;;33.00;99.90;;;;;;5194006;28;20053;-72
2022/09/05 13:09:02;;;;;;;2.00;1.80;;;32.20;99.90;;;;;;5210423;28;20037;-73
2022/09/05 13:12:02;;;;;;;1.97;1.77;;;30.80;99.90;;;;;;5206012;28;20036;-72
2022/09/05 13:15:19;;;;;;;2.30;2.03;;;30.50;99.90;;;;;;5207651;28;20282;-73
2022/09/05 13:18:01;;;;;;;1.70;1.60;;;30.00;99.90;;;;;;5221141;28;20029;-74
2022/09/05 13:20:36;;;;;;;2.33;1.92;;;30.30;99.90;;;;;;5205788;28;20037;-73
2022/09/05 13:23:12;;;;;;;5.72;1.77;;;31.10;99.90;;;;;;5212830;28;20044;-71
2022/09/05 13:25:57;;;;;;;1.42;1.33;;;32.40;99.90;;;;;;5214637;28;20554;-74
2022/09/05 13:28:50;;;;;;;1.70;1.60;;;32.20;99.90;;;;;;5200804;28;20039;-71
2022/09/05 13:31:40;;;;;;;5.25;1.90;;;32.40;99.90;;;;;;5199565;28;20044;-72
2022/09/05 13:34:33;;;;;;;2.13;1.80;;;31.40;99.90;;;;;;5216459;28;20043;-72
2022/09/05 13:37:25;;;;;;;2.72;1.60;;;32.60;99.90;;;;;;5211804;28;20186;-72
2022/09/05 13:40:42;;;;;;;2.80;2.00;;;32.40;99.90;;;;;;5208419;28;20268;-72
2022/09/05 13:43:25;;;;;;;2.30;2.20;;;32.70;99.90;;;;;;5208111;28;20048;-72
2022/09/05 13:46:26;;;;;;;2.03;1.83;;;32.10;99.90;;;;;;5225914;28;20028;-72
2022/09/05 13:49:21;;;;;;;2.10;1.73;;;33.00;99.90;;;;;;5211140;28;20045;-72
2022/09/05 13:52:14;;;;;;;1.98;1.77;;;32.50;99.90;;;;;;5200834;28;20389;-71
2022/09/05 13:55:01;;;;;;;2.22;1.83;;;31.40;99.90;;;;;;5212902;28;20044;-72
2022/09/05 13:57:55;;;;;;;2.08;1.85;;;31.00;99.90;;;;;;5207122;28;20041;-72
2022/09/05 14:00:37;;;;;;;1.65;1.55;;;30.90;99.90;;;;;;5206690;28;20036;-73
2022/09/05 14:03:48;;;;;;;2.00;1.83;;;30.40;99.90;;;;;;5209354;28;20032;-72
2022/09/05 14:07:00;;;;;;;1.77;1.67;;;30.00;99.90;;;;;;5202447;28;20052;-72
2022/09/05 14:09:37;;;;;;;1.73;1.63;;;29.60;99.90;;;;;;5217625;28;20040;-71
2022/09/05 14:12:38;;;;;;;2.08;1.88;;;29.20;99.90;;;;;;5232560;28;20044;-71
2022/09/05 14:15:53;;;;;;;1.83;1.73;;;29.10;99.90;;;;;;5211783;28;20048;-71
2022/09/05 14:21:39;;;;;;;2.22;1.90;;;29.30;99.90;;;;;;5217177;28;20035;-72
2022/09/05 14:24:24;;;;;;;2.00;1.90;;;29.30;99.90;;;;;;5215563;28;20489;-74
2022/09/05 14:26:59;;;;;;;2.70;1.80;;;29.00;99.90;;;;;;5215955;28;20062;-72
2022/09/05 14:29:56;;;;;;;2.33;1.98;;;29.30;99.90;;;;;;5232974;28;20128;-72
2022/09/05 14:32:56;;;;;;;3.67;1.83;;;29.50;99.90;;;;;;5233804;28;20040;-72
2022/09/05 14:36:03;;;;;;;2.00;1.90;;;30.30;99.90;;;;;;5216106;28;20031;-71
2022/09/05 14:39:08;;;;;;;2.13;1.92;;;31.50;99.90;;;;;;5200749;28;20040;-72
2022/09/05 14:42:13;;;;;;;2.22;1.80;;;33.00;99.90;;;;;;5236345;28;20382;-72
2022/09/05 14:45:35;;;;;;;2.10;1.83;;;33.90;99.90;;;;;;5240422;28;20040;-73
2022/09/05 14:48:32;;;;;;;2.20;2.00;;;34.70;99.90;;;;;;5220991;28;20036;-73
2022/09/05 14:51:43;;;;;;;1.95;1.83;;;31.30;99.90;;;;;;5218642;28;20048;-73
2022/09/05 14:54:58;;;;;;;2.30;1.70;;;29.60;99.90;;;;;;5203034;28;20041;-72
2022/09/05 14:57:38;;;;;;;2.95;2.00;;;28.40;99.90;;;;;;5152418;28;20458;-72
2022/09/05 15:00:22;;;;;;;1.83;1.73;;;28.20;99.90;;;;;;5148486;28;20058;-72
2022/09/05 15:02:59;;;;;;;2.20;2.00;;;29.30;99.90;;;;;;5152782;28;20050;-72
2022/09/05 15:05:49;;;;;;;2.20;1.90;;;30.60;99.90;;;;;;5128528;28;20047;-72
2022/09/05 15:08:28;;;;;;;5.05;1.92;;;31.30;99.90;;;;;;5122494;28;20046;-72